createdAt,value
2023-04-01T00:01:01.933Z,70.89
2023-04-01T00:03:30.072Z,70.67
2023-04-01T00:06:00.540Z,70.80
2023-04-01T00:08:27.881Z,70.71
2023-04-01T00:10:54.919Z,70.71
2023-04-01T00:13:21.988Z,70.79
2023-04-01T00:15:48.711Z,70.88
2023-04-01T00:18:15.668Z,70.90
2023-04-01T00:20:49.916Z,70.63
2023-04-01T00:23:17.477Z,70.73
2023-04-01T00:25:46.191Z,70.99
2023-04-01T00:28:12.642Z,70.80
2023-04-01T00:30:39.098Z,70.80
2023-04-01T00:33:05.948Z,70.90
2023-04-01T00:35:33.344Z,70.77
2023-04-01T00:38:00.039Z,70.89
2023-04-01T00:40:33.061Z,70.84
2023-04-01T00:42:59.946Z,70.97
2023-04-01T00:45:36.864Z,70.67
2023-04-01T00:48:10.020Z,70.78
2023-04-01T00:50:39.748Z,70.79
2023-04-01T00:53:08.020Z,70.85
2023-04-01T00:55:39.908Z,70.86
2023-04-01T00:58:10.927Z,71.01
2023-04-01T01:00:38.937Z,70.95
2023-04-01T01:03:05.589Z,71.19
2023-04-01T01:05:58.366Z,70.87
2023-04-01T01:08:45.155Z,70.85
2023-04-01T01:11:13.248Z,70.76
2023-04-01T01:13:59.785Z,70.82
2023-04-01T01:16:30.412Z,71.06
2023-04-01T01:19:11.465Z,70.94
2023-04-01T01:22:22.703Z,70.87
2023-04-01T01:24:52.159Z,70.85
2023-04-01T01:27:20.986Z,71.14
2023-04-01T01:30:02.602Z,71.00
2023-04-01T01:32:52.534Z,70.98
2023-04-01T01:35:27.404Z,70.93
2023-04-01T01:37:59.445Z,70.96
2023-04-01T01:40:28.283Z,71.18
2023-04-01T01:43:00.299Z,71.17
2023-04-01T01:45:28.511Z,71.20
2023-04-01T01:47:56.741Z,71.12
2023-04-01T01:50:24.848Z,71.03
2023-04-01T01:52:51.909Z,70.92
2023-04-01T01:55:31.331Z,71.15
2023-04-01T01:58:21.478Z,71.12
2023-04-01T02:00:54.060Z,71.18
2023-04-01T02:03:23.283Z,71.27
2023-04-01T02:05:54.505Z,71.28
2023-04-01T02:08:29.070Z,71.13
2023-04-01T02:11:03.037Z,71.24
2023-04-01T02:13:42.405Z,71.21
2023-04-01T02:16:16.206Z,71.26
2023-04-01T02:18:46.068Z,71.48
2023-04-01T02:21:13.279Z,71.23
2023-04-01T02:23:40.373Z,71.49
2023-04-01T02:26:09.411Z,71.44
2023-04-01T02:28:39.248Z,71.34
2023-04-01T02:31:07.033Z,71.37
2023-04-01T02:33:34.093Z,71.27
2023-04-01T02:36:00.816Z,71.42
2023-04-01T02:38:27.494Z,71.43
2023-04-01T02:40:59.968Z,71.42
2023-04-01T02:43:26.945Z,71.39
2023-04-01T02:45:53.696Z,71.53
2023-04-01T02:48:20.287Z,71.23
2023-04-01T02:50:46.918Z,71.56
2023-04-01T02:53:13.477Z,71.41
2023-04-01T02:55:39.941Z,71.32
2023-04-01T02:58:06.666Z,71.42
2023-04-01T03:00:33.261Z,71.42
2023-04-01T03:02:59.834Z,71.56
2023-04-01T03:05:26.557Z,71.58
2023-04-01T03:07:53.197Z,71.52
2023-04-01T03:10:20.885Z,71.52
2023-04-01T03:12:47.862Z,71.39
2023-04-01T03:15:15.635Z,71.45
2023-04-01T03:17:43.439Z,71.49
2023-04-01T03:20:12.039Z,71.46
2023-04-01T03:22:40.268Z,71.40
2023-04-01T03:25:10.698Z,71.51
2023-04-01T03:27:37.937Z,71.55
2023-04-01T03:30:06.610Z,71.67
2023-04-01T03:32:38.546Z,71.52
2023-04-01T03:35:06.435Z,71.71
2023-04-01T03:37:33.062Z,71.75
2023-04-01T03:39:59.592Z,71.75
2023-04-01T03:42:26.617Z,71.66
2023-04-01T03:44:53.991Z,71.75
2023-04-01T03:47:20.567Z,71.92
2023-04-01T03:49:46.955Z,71.94
2023-04-01T03:52:13.590Z,71.66
2023-04-01T03:54:40.147Z,71.58
2023-04-01T03:57:07.311Z,71.70
2023-04-01T03:59:35.525Z,71.76
2023-04-01T04:02:02.909Z,71.64
2023-04-01T04:04:29.992Z,71.62
2023-04-01T04:06:57.192Z,71.90
2023-04-01T04:09:24.920Z,71.86
2023-04-01T04:11:51.775Z,71.95
2023-04-01T04:14:18.331Z,71.69
2023-04-01T04:16:45.994Z,71.91
2023-04-01T04:19:12.465Z,71.87
2023-04-01T04:21:40.719Z,71.85
2023-04-01T04:24:07.802Z,71.75
2023-04-01T04:26:57.522Z,71.83
2023-04-01T04:29:24.100Z,71.78
2023-04-01T04:31:51.349Z,72.00
2023-04-01T04:34:19.401Z,71.96
2023-04-01T04:36:46.764Z,72.02
2023-04-01T04:39:13.588Z,71.96
2023-04-01T04:41:42.357Z,71.92
2023-04-01T04:44:08.974Z,71.93
2023-04-01T04:46:35.615Z,71.79
2023-04-01T04:49:12.921Z,71.80
2023-04-01T04:51:39.679Z,71.77
2023-04-01T04:54:07.634Z,71.90
2023-04-01T04:56:49.456Z,71.84
2023-04-01T04:59:16.026Z,71.87
2023-04-01T05:01:49.468Z,71.71
2023-04-01T05:04:16.069Z,71.83
2023-04-01T05:06:45.437Z,71.87
2023-04-01T05:09:12.612Z,71.81
2023-04-01T05:11:39.949Z,71.89
2023-04-01T05:14:06.640Z,71.82
2023-04-01T05:16:34.126Z,71.96
2023-04-01T05:19:02.632Z,71.99
2023-04-01T05:21:29.270Z,72.01
2023-04-01T05:23:57.069Z,72.11
2023-04-01T05:26:25.068Z,71.82
2023-04-01T05:28:51.521Z,72.09
2023-04-01T05:31:18.084Z,71.97
2023-04-01T05:33:47.240Z,72.17
2023-04-01T05:36:16.475Z,72.07
2023-04-01T05:38:44.133Z,72.20
2023-04-01T05:41:12.690Z,71.92
2023-04-01T05:43:43.350Z,72.00
2023-04-01T05:46:33.025Z,71.79
2023-04-01T05:49:08.837Z,72.24
2023-04-01T05:51:35.825Z,72.13
2023-04-01T05:54:02.419Z,72.20
2023-04-01T05:56:29.002Z,72.21
2023-04-01T05:58:56.047Z,72.28
2023-04-01T06:01:24.002Z,72.37
2023-04-01T06:03:50.758Z,72.35
2023-04-01T06:06:23.751Z,72.29
2023-04-01T06:08:51.028Z,72.47
2023-04-01T06:11:27.793Z,72.34
2023-04-01T06:14:11.210Z,72.23
2023-04-01T06:16:58.518Z,72.17
2023-04-01T06:19:40.373Z,72.22
2023-04-01T06:22:18.180Z,72.39
2023-04-01T06:25:15.184Z,72.35
2023-04-01T06:28:03.199Z,72.45
2023-04-01T06:30:34.016Z,72.50
2023-04-01T06:33:31.177Z,72.41
2023-04-01T06:36:03.952Z,72.58
2023-04-01T06:38:33.547Z,72.50
2023-04-01T06:41:32.864Z,72.39
2023-04-01T06:44:19.946Z,72.44
2023-04-01T06:47:31.398Z,72.40
2023-04-01T06:50:37.981Z,72.51
2023-04-01T06:53:38.033Z,72.53
2023-04-01T06:56:27.581Z,72.58
2023-04-01T06:58:58.337Z,72.46
2023-04-01T07:01:45.296Z,72.39
2023-04-01T07:04:20.735Z,72.53
2023-04-01T07:07:00.616Z,72.49
2023-04-01T07:09:38.014Z,72.38
2023-04-01T07:12:28.989Z,72.25
2023-04-01T07:15:21.146Z,72.21
2023-04-01T07:17:53.181Z,72.44
2023-04-01T07:20:33.136Z,72.25
2023-04-01T07:23:27.078Z,71.86
2023-04-01T07:26:26.083Z,72.12
2023-04-01T07:29:13.874Z,72.13
2023-04-01T07:32:05.621Z,71.96
2023-04-01T07:34:53.659Z,71.86
2023-04-01T07:37:43.432Z,71.78
2023-04-01T07:41:13.769Z,71.64
2023-04-01T07:44:14.205Z,71.82
2023-04-01T07:46:40.681Z,71.69
2023-04-01T07:49:27.057Z,71.75
2023-04-01T07:52:00.162Z,71.85
2023-04-01T07:54:35.651Z,71.96
2023-04-01T07:57:09.336Z,71.68
2023-04-01T07:59:56.401Z,71.65
2023-04-01T08:02:52.856Z,71.68
2023-04-01T08:05:30.407Z,71.77
2023-04-01T08:07:59.032Z,71.75
2023-04-01T08:11:12.519Z,71.59
2023-04-01T08:14:09.897Z,71.57
2023-04-01T08:17:17.619Z,71.65
2023-04-01T08:20:13.035Z,71.38
2023-04-01T08:22:46.234Z,71.55
2023-04-01T08:25:28.145Z,71.45
2023-04-01T08:28:25.342Z,71.54
2023-04-01T08:30:59.648Z,71.50
2023-04-01T08:33:29.618Z,71.52
2023-04-01T08:36:14.532Z,71.57
2023-04-01T08:38:52.763Z,71.42
2023-04-01T08:42:01.492Z,71.21
2023-04-01T08:45:14.262Z,71.30
2023-04-01T08:48:02.352Z,71.50
2023-04-01T08:50:58.232Z,71.41
2023-04-01T08:53:52.581Z,71.50
2023-04-01T08:56:39.211Z,71.45
2023-04-01T08:59:36.405Z,71.31
2023-04-01T09:02:09.983Z,71.48
2023-04-01T09:05:31.248Z,71.18
2023-04-01T09:08:31.806Z,71.21
2023-04-01T09:11:26.182Z,71.11
2023-04-01T09:14:51.946Z,71.22
2023-04-01T09:17:35.814Z,71.24
2023-04-01T09:20:34.588Z,70.92
2023-04-01T09:23:22.062Z,71.02
2023-04-01T09:26:10.381Z,70.98
2023-04-01T09:29:19.424Z,71.06
2023-04-01T09:31:58.196Z,71.08
2023-04-01T09:34:54.209Z,71.03
2023-04-01T09:37:43.016Z,70.97
2023-04-01T09:40:26.747Z,70.96
2023-04-01T09:43:17.479Z,71.08
2023-04-01T09:46:21.875Z,70.96
2023-04-01T09:49:01.014Z,71.10
2023-04-01T09:51:55.720Z,70.94
2023-04-01T09:54:47.200Z,71.05
2023-04-01T09:57:52.312Z,70.96
2023-04-01T10:01:07.217Z,71.06
2023-04-01T10:03:55.595Z,71.14
2023-04-01T10:06:47.687Z,71.10
2023-04-01T10:09:49.643Z,70.95
2023-04-01T10:12:51.192Z,71.03
2023-04-01T10:15:20.369Z,70.88
2023-04-01T10:17:54.055Z,70.87
2023-04-01T10:20:41.110Z,70.89
2023-04-01T10:23:33.775Z,70.73
2023-04-01T10:26:33.377Z,70.89
2023-04-01T10:29:23.460Z,70.90
2023-04-01T10:32:13.906Z,71.06
2023-04-01T10:34:49.668Z,71.04
2023-04-01T10:37:42.245Z,70.82
2023-04-01T10:40:38.868Z,70.91
2023-04-01T10:44:11.041Z,71.18
2023-04-01T10:46:59.508Z,70.84
2023-04-01T10:49:41.186Z,70.96
2023-04-01T10:52:38.578Z,70.74
2023-04-01T10:55:46.761Z,70.94
2023-04-01T10:59:05.696Z,70.79
2023-04-01T11:02:37.321Z,70.79
2023-04-01T11:05:47.556Z,70.69
2023-04-01T11:08:42.517Z,70.88
2023-04-01T11:11:35.748Z,70.93
2023-04-01T11:14:30.620Z,70.75
2023-04-01T11:17:18.476Z,70.74
2023-04-01T11:20:07.330Z,70.68
2023-04-01T11:23:03.585Z,70.89
2023-04-01T11:25:43.045Z,70.86
2023-04-01T11:28:58.484Z,70.84
2023-04-01T11:31:48.296Z,70.82
2023-04-01T11:34:49.796Z,70.72
2023-04-01T11:37:22.340Z,70.81
2023-04-01T11:40:38.895Z,70.93
2023-04-01T11:43:39.553Z,70.50
2023-04-01T11:46:55.319Z,70.72
2023-04-01T11:49:47.522Z,70.78
2023-04-01T11:52:40.847Z,70.85
2023-04-01T11:55:26.203Z,70.76
2023-04-01T11:58:19.142Z,70.63
2023-04-01T12:01:12.189Z,70.50
2023-04-01T12:03:57.855Z,70.46
2023-04-01T12:06:36.884Z,70.35
2023-04-01T12:09:47.855Z,70.44
2023-04-01T12:12:27.517Z,70.40
2023-04-01T12:15:20.757Z,70.40
2023-04-01T12:18:01.782Z,70.21
2023-04-01T12:20:49.766Z,70.17
2023-04-01T12:23:32.209Z,70.09
2023-04-01T12:26:17.312Z,70.05
2023-04-01T12:29:00.878Z,70.09
2023-04-01T12:31:49.240Z,69.89
2023-04-01T12:34:35.494Z,69.75
2023-04-01T12:37:07.880Z,70.15
2023-04-01T12:39:59.211Z,69.94
2023-04-01T12:42:31.660Z,69.67
2023-04-01T12:45:14.099Z,69.86
2023-04-01T12:47:56.742Z,69.57
2023-04-01T12:50:29.040Z,69.89
2023-04-01T12:53:30.000Z,69.83
2023-04-01T12:55:57.034Z,69.77
2023-04-01T12:59:05.273Z,69.61
2023-04-01T13:01:43.437Z,69.62
2023-04-01T13:04:24.888Z,69.79
2023-04-01T13:07:22.732Z,69.76
2023-04-01T13:09:57.297Z,69.81
2023-04-01T13:12:35.876Z,69.71
2023-04-01T13:15:26.334Z,69.39
2023-04-01T13:18:17.284Z,69.65
2023-04-01T13:20:53.117Z,69.68
2023-04-01T13:24:02.404Z,69.53
2023-04-01T13:26:49.493Z,69.53
2023-04-01T13:29:22.342Z,69.55
2023-04-01T13:32:15.960Z,69.62
2023-04-01T13:34:49.090Z,69.67
2023-04-01T13:37:52.979Z,69.72
2023-04-01T13:40:36.374Z,69.77
2023-04-01T13:43:16.445Z,69.51
2023-04-01T13:45:51.053Z,69.61
2023-04-01T13:48:33.728Z,69.26
2023-04-01T13:51:25.481Z,69.44
2023-04-01T13:54:03.953Z,69.44
2023-04-01T13:56:39.005Z,69.27
2023-04-01T13:59:23.464Z,69.38
2023-04-01T14:02:16.061Z,69.45
2023-04-01T14:04:54.269Z,69.52
2023-04-01T14:07:49.692Z,69.26
2023-04-01T14:10:38.094Z,69.36
2023-04-01T14:13:15.913Z,69.27
2023-04-01T14:16:07.428Z,69.28
2023-04-01T14:19:10.387Z,69.37
2023-04-01T14:21:54.382Z,69.26
2023-04-01T14:24:29.933Z,69.23
2023-04-01T14:27:26.029Z,69.50
2023-04-01T14:30:17.602Z,69.36
2023-04-01T14:32:52.835Z,69.32
2023-04-01T14:35:43.993Z,69.23
2023-04-01T14:38:48.700Z,69.16
2023-04-01T14:41:38.756Z,69.18
2023-04-01T14:44:23.787Z,69.29
2023-04-01T14:47:20.456Z,68.94
2023-04-01T14:49:54.425Z,68.99
2023-04-01T14:52:35.289Z,69.06
2023-04-01T14:55:11.981Z,69.25
2023-04-01T14:57:38.496Z,69.20
2023-04-01T15:00:04.955Z,69.16
2023-04-01T15:03:03.151Z,68.94
2023-04-01T15:05:46.360Z,69.15
2023-04-01T15:08:18.362Z,69.12
2023-04-01T15:11:14.142Z,68.95
2023-04-01T15:13:54.397Z,68.87
2023-04-01T15:16:40.300Z,68.91
2023-04-01T15:19:28.785Z,68.82
2023-04-01T15:22:25.791Z,68.88
2023-04-01T15:25:37.141Z,68.93
2023-04-01T15:28:34.760Z,69.09
2023-04-01T15:31:08.602Z,68.98
2023-04-01T15:33:57.881Z,69.17
2023-04-01T15:36:54.329Z,69.08
2023-04-01T15:39:43.853Z,68.89
2023-04-01T15:42:26.839Z,68.98
2023-04-01T15:44:53.185Z,68.89
2023-04-01T15:47:25.905Z,68.84
2023-04-01T15:50:27.017Z,68.80
2023-04-01T15:53:17.822Z,68.79
2023-04-01T15:56:00.498Z,68.93
2023-04-01T15:59:05.077Z,68.84
2023-04-01T16:01:52.941Z,68.61
2023-04-01T16:04:40.817Z,68.46
2023-04-01T16:07:39.073Z,68.70
2023-04-01T16:10:17.348Z,68.62
2023-04-01T16:13:20.203Z,68.71
2023-04-01T16:16:08.431Z,68.86
2023-04-01T16:18:49.544Z,68.58
2023-04-01T16:21:34.936Z,68.65
2023-04-01T16:24:13.498Z,68.66
2023-04-01T16:26:49.749Z,68.69
2023-04-01T16:29:16.116Z,68.87
2023-04-01T16:32:03.033Z,68.56
2023-04-01T16:34:39.810Z,68.63
2023-04-01T16:37:13.894Z,68.60
2023-04-01T16:40:12.083Z,68.61
2023-04-01T16:42:50.032Z,68.57
2023-04-01T16:45:39.505Z,68.49
2023-04-01T16:48:18.284Z,68.60
2023-04-01T16:50:53.704Z,68.38
2023-04-01T16:53:38.365Z,68.40
2023-04-01T16:56:16.026Z,68.32
2023-04-01T16:58:55.874Z,68.52
2023-04-01T17:01:38.318Z,68.31
2023-04-01T17:04:35.283Z,68.32
2023-04-01T17:07:29.724Z,68.14
2023-04-01T17:10:05.409Z,68.21
2023-04-01T17:12:46.202Z,68.09
2023-04-01T17:15:32.438Z,68.29
2023-04-01T17:18:20.123Z,68.08
2023-04-01T17:21:08.714Z,68.18
2023-04-01T17:24:05.590Z,68.13
2023-04-01T17:26:43.342Z,68.33
2023-04-01T17:29:34.674Z,68.27
2023-04-01T17:32:26.083Z,68.29
2023-04-01T17:35:10.395Z,68.40
2023-04-01T17:37:56.038Z,68.33
2023-04-01T17:40:32.117Z,68.17
2023-04-01T17:43:22.778Z,68.27
2023-04-01T17:46:02.421Z,68.07
2023-04-01T17:49:22.971Z,67.93
2023-04-01T17:52:18.472Z,68.03
2023-04-01T17:54:59.765Z,68.00
2023-04-01T17:57:48.158Z,68.01
2023-04-01T18:00:19.070Z,67.93
2023-04-01T18:03:21.018Z,67.87
2023-04-01T18:05:59.979Z,67.92
2023-04-01T18:08:36.387Z,68.14
2023-04-01T18:11:24.501Z,68.03
2023-04-01T18:14:19.691Z,68.16
2023-04-01T18:16:58.454Z,68.17
2023-04-01T18:19:47.866Z,68.09
2023-04-01T18:22:27.044Z,68.20
2023-04-01T18:25:11.853Z,68.33
2023-04-01T18:27:42.264Z,68.09
2023-04-01T18:30:16.794Z,68.02
2023-04-01T18:32:55.592Z,67.86
2023-04-01T18:35:45.892Z,68.11
2023-04-01T18:38:30.644Z,68.06
2023-04-01T18:41:16.372Z,67.53
2023-04-01T18:44:02.224Z,67.98
2023-04-01T18:46:39.100Z,68.15
2023-04-01T18:49:35.372Z,68.02
2023-04-01T18:52:32.792Z,67.95
2023-04-01T18:55:02.279Z,68.07
2023-04-01T18:57:45.322Z,67.91
2023-04-01T19:00:23.278Z,68.13
2023-04-01T19:02:53.738Z,68.06
2023-04-01T19:05:35.475Z,67.78
2023-04-01T19:08:32.401Z,67.68
2023-04-01T19:11:24.934Z,67.70
2023-04-01T19:13:56.060Z,68.18
2023-04-01T19:16:44.925Z,67.82
2023-04-01T19:19:31.310Z,67.68
2023-04-01T19:22:02.485Z,67.87
2023-04-01T19:24:43.884Z,67.67
2023-04-01T19:27:25.702Z,67.64
2023-04-01T19:30:26.307Z,67.51
2023-04-01T19:33:19.507Z,67.47
2023-04-01T19:36:10.350Z,67.53
2023-04-01T19:38:43.912Z,67.51
2023-04-01T19:41:21.294Z,67.46
2023-04-01T19:44:45.011Z,67.37
2023-04-01T19:47:46.317Z,67.61
2023-04-01T19:50:36.510Z,67.39
2023-04-01T19:53:30.283Z,67.51
2023-04-01T19:56:08.616Z,67.42
2023-04-01T19:58:46.765Z,67.37
2023-04-01T20:01:25.506Z,67.48
2023-04-01T20:04:03.407Z,67.13
2023-04-01T20:06:39.055Z,67.29
2023-04-01T20:09:23.468Z,67.43
2023-04-01T20:12:17.523Z,67.34
2023-04-01T20:14:49.785Z,67.49
2023-04-01T20:17:23.976Z,67.28
2023-04-01T20:20:11.881Z,67.23
2023-04-01T20:23:00.805Z,67.13
2023-04-01T20:25:40.741Z,67.05
2023-04-01T20:28:24.076Z,66.85
2023-04-01T20:31:04.573Z,66.86
2023-04-01T20:34:17.470Z,66.59
2023-04-01T20:37:19.353Z,66.68
2023-04-01T20:40:09.235Z,66.60
2023-04-01T20:43:00.198Z,66.44
2023-04-01T20:45:35.050Z,66.76
2023-04-01T20:48:24.964Z,66.59
2023-04-01T20:51:05.556Z,66.69
2023-04-01T20:53:43.337Z,66.42
2023-04-01T20:56:34.193Z,66.12
2023-04-01T20:59:48.677Z,65.99
2023-04-01T21:03:02.733Z,66.10
2023-04-01T21:05:49.753Z,66.22
2023-04-01T21:09:01.283Z,65.80
2023-04-01T21:12:12.802Z,65.81
2023-04-01T21:15:10.549Z,65.59
2023-04-01T21:18:04.325Z,65.51
2023-04-01T21:20:51.783Z,65.54
2023-04-01T21:23:44.206Z,65.51
2023-04-01T21:26:32.627Z,65.56
2023-04-01T21:29:24.164Z,65.47
2023-04-01T21:32:15.412Z,65.53
2023-04-01T21:34:52.845Z,65.39
2023-04-01T21:37:38.293Z,65.13
2023-04-01T21:40:23.587Z,65.00
2023-04-01T21:42:53.155Z,65.22
2023-04-01T21:45:38.137Z,65.13
2023-04-01T21:48:23.233Z,65.25
2023-04-01T21:51:02.347Z,65.21
2023-04-01T21:53:31.691Z,65.45
2023-04-01T21:56:11.293Z,65.08
2023-04-01T21:58:56.681Z,65.12
2023-04-01T22:01:56.071Z,65.23
2023-04-01T22:04:39.710Z,65.37
2023-04-01T22:07:44.431Z,65.00
2023-04-01T22:10:29.944Z,64.82
2023-04-01T22:13:17.764Z,65.32
2023-04-01T22:16:06.896Z,65.01
2023-04-01T22:18:39.011Z,65.32
2023-04-01T22:21:24.781Z,65.01
2023-04-01T22:24:09.416Z,65.39
2023-04-01T22:26:45.683Z,65.27
2023-04-01T22:29:21.271Z,65.32
2023-04-01T22:31:56.665Z,65.12
2023-04-01T22:34:51.145Z,64.74
2023-04-01T22:37:28.403Z,65.03
2023-04-01T22:40:18.650Z,65.24
2023-04-01T22:42:48.694Z,65.17
2023-04-01T22:45:35.275Z,64.66
2023-04-01T22:48:22.280Z,64.41
2023-04-01T22:50:56.249Z,64.81
2023-04-01T22:53:47.230Z,64.91
2023-04-01T22:56:19.361Z,65.10
2023-04-01T22:59:19.468Z,64.79
2023-04-01T23:01:52.229Z,64.87
2023-04-01T23:04:25.067Z,64.94
2023-04-01T23:06:58.803Z,65.09
2023-04-01T23:09:29.320Z,65.06
2023-04-01T23:12:05.043Z,65.08
2023-04-01T23:14:45.059Z,65.00
2023-04-01T23:17:14.597Z,65.17
2023-04-01T23:20:23.166Z,65.10
2023-04-01T23:23:24.645Z,65.06
2023-04-01T23:26:11.326Z,64.67
2023-04-01T23:28:45.623Z,64.73
2023-04-01T23:31:27.221Z,64.60
2023-04-01T23:34:02.955Z,64.99
2023-04-01T23:36:32.112Z,64.74
2023-04-01T23:39:05.148Z,64.74
2023-04-01T23:41:33.465Z,64.93
2023-04-01T23:44:08.428Z,65.05
2023-04-01T23:46:36.131Z,64.61
2023-04-01T23:49:04.852Z,64.91
2023-04-01T23:51:47.446Z,64.93
2023-04-01T23:54:50.573Z,64.85
2023-04-01T23:57:22.024Z,65.04
